Time;durP1;ratioP1;P1;durP2;ratioP2;P2;SDS_P1;SDS_P2;PMS_P1;PMS_P2;Temp;Humidity;BMP_temperature;BMP_pressure;BME280_temperature;BME280_humidity;BME280_pressure;Samples;Min_cycle;Max_cycle;Signal;HPM_P1;HPM_P2
2023/11/21 00:00:53;;;;;;;24.20;12.00;;;;;;;6.92;100.00;100741.50;5035112;28;20492;-76
2023/11/21 00:03:19;;;;;;;24.67;12.15;;;;;;;6.90;100.00;100746.00;5039270;28;20029;-76
2023/11/21 00:05:44;;;;;;;20.60;11.88;;;;;;;6.89;100.00;100757.22;5024469;28;20790;-76
2023/11/21 00:08:10;;;;;;;23.08;12.05;;;;;;;6.85;100.00;100751.53;5037150;28;20041;-76
2023/11/21 00:10:38;;;;;;;21.38;10.57;;;;;;;6.81;100.00;100753.56;5036417;28;20041;-77
2023/11/21 00:13:04;;;;;;;22.33;11.07;;;;;;;6.80;100.00;100748.56;5039886;28;20025;-77
2023/11/21 00:15:29;;;;;;;22.80;10.43;;;;;;;6.77;100.00;100752.19;5031091;28;20044;-76
2023/11/21 00:17:55;;;;;;;18.27;10.07;;;;;;;6.73;100.00;100750.81;5037309;28;20037;-75
2023/11/21 00:20:20;;;;;;;17.27;10.27;;;;;;;6.67;100.00;100759.09;5041359;28;20076;-76
2023/11/21 00:22:46;;;;;;;20.20;10.88;;;;;;;6.65;100.00;100762.72;5041439;28;20110;-76
2023/11/21 00:25:14;;;;;;;18.27;10.48;;;;;;;6.62;100.00;100764.63;5028075;28;20041;-77
2023/11/21 00:27:39;;;;;;;20.05;10.68;;;;;;;6.61;100.00;100757.03;5042733;28;20040;-76
2023/11/21 00:30:08;;;;;;;23.15;11.57;;;;;;;6.61;100.00;100767.31;5029178;28;20033;-77
2023/11/21 00:32:35;;;;;;;27.65;12.00;;;;;;;6.60;100.00;100769.09;5057887;28;20037;-77
2023/11/21 00:35:01;;;;;;;20.35;11.30;;;;;;;6.59;100.00;100769.22;5059855;28;20037;-76
2023/11/21 00:37:28;;;;;;;20.40;11.05;;;;;;;6.58;100.00;100765.84;5042236;28;20087;-78
2023/11/21 00:39:54;;;;;;;25.88;12.57;;;;;;;6.59;100.00;100772.63;5026037;28;20105;-77
2023/11/21 00:42:21;;;;;;;23.73;12.35;;;;;;;6.61;100.00;100775.06;5047780;28;20025;-76
2023/11/21 00:44:46;;;;;;;22.77;12.27;;;;;;;6.61;100.00;100775.91;5046593;28;20071;-75
2023/11/21 00:47:12;;;;;;;26.05;12.15;;;;;;;6.62;100.00;100771.56;5045670;28;20410;-76
2023/11/21 00:49:39;;;;;;;23.60;11.52;;;;;;;6.64;100.00;100767.06;5029711;28;20048;-77
2023/11/21 00:52:05;;;;;;;19.13;11.48;;;;;;;6.61;100.00;100763.00;5043138;28;20300;-77
2023/11/21 00:54:30;;;;;;;24.48;10.50;;;;;;;6.61;100.00;100759.59;5059536;28;20084;-77
2023/11/21 00:56:56;;;;;;;23.42;11.05;;;;;;;6.59;100.00;100756.34;5025635;28;20040;-77
2023/11/21 00:59:23;;;;;;;22.95;10.25;;;;;;;6.59;100.00;100770.06;5042060;28;20078;-81
2023/11/21 01:01:48;;;;;;;21.08;10.13;;;;;;;6.61;100.00;100772.47;5022707;28;20112;-77
2023/11/21 01:04:14;;;;;;;21.23;11.13;;;;;;;6.61;100.00;100775.91;5026749;28;20040;-76
2023/11/21 01:06:39;;;;;;;22.90;10.75;;;;;;;6.63;100.00;100775.78;5042879;28;20041;-76
2023/11/21 01:09:08;;;;;;;27.05;12.10;;;;;;;6.63;100.00;100775.78;5048044;28;20039;-77
2023/11/21 01:11:38;;;;;;;22.83;10.27;;;;;;;6.65;100.00;100783.34;5038514;28;20037;-77
2023/11/21 01:14:04;;;;;;;20.10;10.82;;;;;;;6.66;100.00;100790.16;5024715;28;20163;-76
2023/11/21 01:16:32;;;;;;;19.90;10.90;;;;;;;6.67;100.00;100792.59;5038882;28;20394;-75
2023/11/21 01:18:59;;;;;;;26.42;10.00;;;;;;;6.68;100.00;100799.38;5041135;28;20029;-76
2023/11/21 01:21:25;;;;;;;21.55;10.38;;;;;;;6.69;100.00;100807.94;5043416;28;20036;-76
2023/11/21 01:23:50;;;;;;;21.95;11.32;;;;;;;6.69;100.00;100801.00;5042750;28;20543;-75
2023/11/21 01:26:15;;;;;;;20.45;11.35;;;;;;;6.69;100.00;100810.50;5040698;28;20091;-77
2023/11/21 01:28:41;;;;;;;23.08;11.98;;;;;;;6.67;100.00;100805.47;5042411;28;20955;-75
2023/11/21 01:31:07;;;;;;;27.02;12.93;;;;;;;6.68;100.00;100804.50;5055919;28;20071;-76
2023/11/21 01:33:33;;;;;;;31.27;14.35;;;;;;;6.72;100.00;100802.50;5024923;28;20455;-76
2023/11/21 01:35:59;;;;;;;28.00;13.95;;;;;;;6.73;100.00;100806.72;5041186;28;20037;-76
2023/11/21 01:38:25;;;;;;;35.97;15.10;;;;;;;6.73;100.00;100806.72;5022407;28;20619;-76
2023/11/21 01:40:51;;;;;;;30.77;14.23;;;;;;;6.74;100.00;100808.34;5044274;28;20040;-76
2023/11/21 01:43:17;;;;;;;32.53;14.75;;;;;;;6.73;100.00;100802.38;5055668;28;20094;-76
2023/11/21 01:45:45;;;;;;;33.78;15.25;;;;;;;6.76;100.00;100796.97;5027148;28;20037;-75
2023/11/21 01:48:10;;;;;;;29.30;14.32;;;;;;;6.77;100.00;100802.94;5027330;28;20036;-76
2023/11/21 01:50:36;;;;;;;30.98;14.48;;;;;;;6.77;100.00;100802.94;5043747;28;20047;-77
2023/11/21 01:53:03;;;;;;;28.88;15.10;;;;;;;6.77;100.00;100803.75;5025929;28;20213;-76
2023/11/21 01:55:29;;;;;;;33.05;14.15;;;;;;;6.79;100.00;100813.91;5042377;28;20085;-76
2023/11/21 01:57:58;;;;;;;37.47;15.30;;;;;;;6.78;100.00;100818.28;5029019;28;20101;-76
2023/11/21 02:00:24;;;;;;;35.05;16.02;;;;;;;6.80;100.00;100818.94;5044930;28;20037;-75
2023/11/21 02:02:49;;;;;;;30.70;15.52;;;;;;;6.80;100.00;100813.78;5030063;28;20477;-77
2023/11/21 02:05:18;;;;;;;38.63;15.50;;;;;;;6.81;100.00;100812.84;5044723;28;20041;-75
2023/11/21 02:07:44;;;;;;;32.47;14.70;;;;;;;6.82;100.00;100818.81;5044583;28;20032;-77
2023/11/21 02:10:14;;;;;;;30.75;14.32;;;;;;;6.82;100.00;100814.47;5043863;28;20040;-74
2023/11/21 02:12:44;;;;;;;38.58;16.45;;;;;;;6.85;100.00;100828.06;5021959;28;20487;-76
2023/11/21 02:15:20;;;;;;;38.05;16.02;;;;;;;6.86;100.00;100821.97;5022795;28;20032;-77
2023/11/21 02:17:53;;;;;;;38.75;15.05;;;;;;;6.86;100.00;100827.13;5041853;28;20176;-76
2023/11/21 02:20:24;;;;;;;31.88;14.85;;;;;;;6.85;100.00;100831.44;5044129;28;20450;-77
2023/11/21 02:22:57;;;;;;;36.40;14.10;;;;;;;6.86;100.00;100837.44;5040920;28;20060;-77
2023/11/21 02:25:24;;;;;;;32.45;15.63;;;;;;;6.87;100.00;100837.28;5025270;28;20033;-77
2023/11/21 02:27:49;;;;;;;33.17;13.90;;;;;;;6.86;100.00;100838.22;5017960;28;20029;-76
2023/11/21 02:30:16;;;;;;;33.40;14.35;;;;;;;6.87;100.00;100845.00;5042478;28;20090;-76
2023/11/21 02:32:42;;;;;;;30.45;14.70;;;;;;;6.87;100.00;100844.19;5040536;28;20040;-76
2023/11/21 02:35:09;;;;;;;38.05;15.55;;;;;;;6.88;100.00;100849.22;5032925;28;20029;-76
2023/11/21 02:37:35;;;;;;;32.67;14.70;;;;;;;6.89;100.00;100850.03;5036303;28;20075;-76
2023/11/21 02:40:06;;;;;;;35.40;15.15;;;;;;;6.89;100.00;100844.88;5030449;28;20037;-76
2023/11/21 02:42:31;;;;;;;35.70;14.43;;;;;;;6.90;100.00;100849.91;5038254;28;20040;-76
2023/11/21 02:44:57;;;;;;;27.70;13.30;;;;;;;6.91;100.00;100851.56;5037565;28;20057;-76
2023/11/21 02:47:23;;;;;;;32.58;14.70;;;;;;;6.90;100.00;100846.53;5041050;28;20043;-77
2023/11/21 02:49:48;;;;;;;33.65;15.05;;;;;;;6.91;100.00;100846.41;5055455;28;20029;-77
2023/11/21 02:52:14;;;;;;;36.50;15.73;;;;;;;6.92;100.00;100852.38;5041139;28;20468;-76
2023/11/21 02:54:39;;;;;;;35.20;14.95;;;;;;;6.93;100.00;100848.81;5037350;28;20040;-76
2023/11/21 02:57:05;;;;;;;38.15;15.80;;;;;;;6.93;100.00;100848.81;5024875;28;20037;-76
2023/11/21 02:59:31;;;;;;;34.58;15.15;;;;;;;6.95;100.00;100849.50;5024977;28;20104;-77
2023/11/21 03:01:56;;;;;;;32.15;15.32;;;;;;;6.94;100.00;100846.13;5026963;28;20162;-76
2023/11/21 03:04:23;;;;;;;30.95;15.18;;;;;;;6.95;100.00;100839.19;5021262;28;20114;-76
2023/11/21 03:06:48;;;;;;;36.17;15.15;;;;;;;6.95;100.00;100850.34;5027050;28;20032;-76
2023/11/21 03:09:16;;;;;;;39.28;15.50;;;;;;;6.95;100.00;100854.66;5057937;28;20026;-77
2023/11/21 03:11:41;;;;;;;36.08;15.13;;;;;;;6.95;100.00;100852.91;5026691;28;20037;-74
2023/11/21 03:14:07;;;;;;;30.52;15.55;;;;;;;6.96;100.00;100858.88;5040979;28;20075;-77
2023/11/21 03:16:33;;;;;;;34.47;15.93;;;;;;;6.96;100.00;100858.88;5043943;28;20037;-76
2023/11/21 03:18:58;;;;;;;38.70;16.95;;;;;;;6.98;100.00;100867.31;5038115;28;20103;-76
2023/11/21 03:21:24;;;;;;;31.70;15.10;;;;;;;6.96;100.00;100858.88;5039348;28;20036;-76
2023/11/21 03:23:50;;;;;;;35.17;16.65;;;;;;;6.97;100.00;100863.91;5040702;28;20598;-75
2023/11/21 03:26:16;;;;;;;36.58;15.90;;;;;;;6.98;100.00;100870.69;5023664;28;20037;-76
2023/11/21 03:28:42;;;;;;;36.20;15.68;;;;;;;6.96;100.00;100869.19;5021203;28;20043;-76
2023/11/21 03:31:08;;;;;;;37.55;15.40;;;;;;;6.94;100.00;100871.09;5038300;28;20049;-76
2023/11/21 03:33:35;;;;;;;36.65;16.70;;;;;;;6.94;100.00;100876.25;5027390;28;20120;-77
2023/11/21 03:36:00;;;;;;;40.88;17.48;;;;;;;6.97;100.00;100896.63;5025350;28;20041;-75
2023/11/21 03:38:26;;;;;;;45.10;17.40;;;;;;;7.00;100.00;100891.19;5027060;28;20503;-77
2023/11/21 03:40:51;;;;;;;43.05;17.10;;;;;;;7.01;100.00;100898.00;5042112;28;20029;-76
2023/11/21 03:43:17;;;;;;;36.25;16.08;;;;;;;6.97;100.00;100891.47;5043768;28;20471;-76
2023/11/21 03:45:42;;;;;;;43.20;16.35;;;;;;;6.97;100.00;100904.34;5021636;28;20056;-76
2023/11/21 03:48:09;;;;;;;37.80;15.60;;;;;;;6.96;100.00;100900.13;5040487;28;20028;-76
2023/11/21 03:50:37;;;;;;;47.65;17.42;;;;;;;7.05;100.00;100899.34;5042005;28;20391;-77
2023/11/21 03:53:03;;;;;;;41.17;16.38;;;;;;;7.00;100.00;100901.50;5023883;28;20020;-77
2023/11/21 03:55:31;;;;;;;41.13;16.63;;;;;;;6.97;100.00;100905.16;5056815;28;20037;-76
2023/11/21 03:57:56;;;;;;;42.85;17.27;;;;;;;6.98;100.00;100906.78;5042738;28;20033;-77
2023/11/21 04:00:22;;;;;;;49.75;17.20;;;;;;;6.96;100.00;100907.88;5030483;28;20573;-77
2023/11/21 04:02:47;;;;;;;47.55;19.25;;;;;;;6.95;100.00;100911.38;5027503;28;20096;-76
2023/11/21 04:05:13;;;;;;;45.50;18.05;;;;;;;6.97;100.00;100906.94;5040539;28;20033;-76
2023/11/21 04:07:38;;;;;;;41.65;16.63;;;;;;;6.95;100.00;100913.97;5042431;28;20172;-76
2023/11/21 04:10:08;;;;;;;42.17;19.23;;;;;;;6.98;100.00;100913.72;5026080;28;20042;-76
2023/11/21 04:12:34;;;;;;;46.63;17.10;;;;;;;6.97;100.00;100912.09;5027029;28;20467;-76
2023/11/21 04:15:00;;;;;;;38.47;16.83;;;;;;;6.96;100.00;100915.59;5042908;28;20037;-77
2023/11/21 04:17:25;;;;;;;35.80;16.40;;;;;;;6.94;100.00;100913.16;5044856;28;20502;-75
2023/11/21 04:19:51;;;;;;;41.50;16.75;;;;;;;6.95;100.00;100913.97;5045775;28;20049;-77
2023/11/21 04:22:16;;;;;;;40.08;15.77;;;;;;;6.93;100.00;100906.38;5044048;28;20040;-76
2023/11/21 04:24:42;;;;;;;40.50;15.88;;;;;;;6.93;100.00;100911.53;5045088;28;20527;-75
2023/11/21 04:27:07;;;;;;;37.95;16.85;;;;;;;6.95;100.00;100913.97;5031835;28;20055;-76
2023/11/21 04:29:33;;;;;;;50.47;20.00;;;;;;;6.95;100.00;100919.13;5046661;28;20161;-76
2023/11/21 04:31:58;;;;;;;43.17;19.50;;;;;;;6.92;100.00;100915.03;5028552;28;20083;-79
2023/11/21 04:34:24;;;;;;;48.45;19.70;;;;;;;6.92;100.00;100919.38;5038588;28;20037;-77
2023/11/21 04:36:50;;;;;;;39.53;16.35;;;;;;;6.90;100.00;100923.88;5031467;28;20638;-77
2023/11/21 04:39:15;;;;;;;38.63;18.38;;;;;;;6.88;100.00;100912.88;5044046;28;20032;-76
2023/11/21 04:41:41;;;;;;;38.40;16.25;;;;;;;6.87;100.00;100916.38;5044257;28;20036;-74
2023/11/21 04:44:06;;;;;;;44.20;16.67;;;;;;;6.82;100.00;100924.50;5040108;28;20048;-75
2023/11/21 04:46:32;;;;;;;38.55;15.90;;;;;;;6.82;100.00;100927.09;5044243;28;20044;-76
2023/11/21 04:48:58;;;;;;;39.80;15.95;;;;;;;6.82;100.00;100930.47;5044381;28;20035;-76
2023/11/21 04:51:24;;;;;;;43.05;18.20;;;;;;;6.86;100.00;100935.38;5030118;28;20032;-77
2023/11/21 04:53:49;;;;;;;43.70;17.67;;;;;;;6.83;100.00;100941.59;5061935;28;20791;-77
2023/11/21 04:56:16;;;;;;;45.15;19.80;;;;;;;6.81;100.00;100939.13;5044639;28;20415;-74
2023/11/21 04:58:41;;;;;;;45.95;19.58;;;;;;;6.80;100.00;100936.72;5043744;28;20681;-77
2023/11/21 05:01:07;;;;;;;61.22;22.92;;;;;;;6.82;100.00;100943.34;5041153;28;20033;-76
2023/11/21 05:03:33;;;;;;;59.35;26.85;;;;;;;6.82;100.00;100945.13;5047264;28;20494;-76
2023/11/21 05:05:59;;;;;;;62.90;31.48;;;;;;;6.83;100.00;100951.91;5026328;28;20048;-76
2023/11/21 05:08:26;;;;;;;65.85;32.10;;;;;;;6.82;100.00;100945.94;5041313;28;20036;-77
2023/11/21 05:10:52;;;;;;;67.82;29.90;;;;;;;6.83;100.00;100949.31;5045745;28;20033;-76
2023/11/21 05:13:18;;;;;;;56.22;25.27;;;;;;;6.82;100.00;100950.28;5044816;28;20032;-76
2023/11/21 05:15:44;;;;;;;56.85;21.17;;;;;;;6.86;100.00;100953.44;5043247;28;20045;-77
2023/11/21 05:18:10;;;;;;;48.05;19.83;;;;;;;6.81;100.00;100952.03;5025701;28;20048;-76
2023/11/21 05:20:35;;;;;;;58.42;20.33;;;;;;;6.83;100.00;100955.28;5022767;28;20036;-76
2023/11/21 05:23:01;;;;;;;63.83;23.95;;;;;;;6.81;100.00;100957.19;5042592;28;20652;-76
2023/11/21 05:25:27;;;;;;;57.97;23.98;;;;;;;6.77;100.00;100963.53;5036155;28;20534;-77
2023/11/21 05:27:54;;;;;;;54.40;22.23;;;;;;;6.76;100.00;100966.22;5044463;28;20033;-77
2023/11/21 05:30:21;;;;;;;58.42;20.15;;;;;;;6.78;100.00;100969.50;5027946;28;20045;-74
2023/11/21 05:32:46;;;;;;;49.25;18.95;;;;;;;6.76;100.00;100977.38;5047171;28;20569;-77
2023/11/21 05:35:15;;;;;;;57.80;20.40;;;;;;;6.74;100.00;100981.84;5045134;28;20040;-76
2023/11/21 05:37:41;;;;;;;70.07;21.90;;;;;;;6.74;100.00;100983.59;5040561;28;20033;-76
2023/11/21 05:40:08;;;;;;;62.58;21.17;;;;;;;6.77;100.00;100980.78;5044494;28;20128;-76
2023/11/21 05:42:35;;;;;;;62.13;20.60;;;;;;;6.72;100.00;100986.28;5039567;28;20041;-76
2023/11/21 05:45:11;;;;;;;63.25;20.77;;;;;;;6.75;100.00;100995.53;5030915;28;20083;-76
2023/11/21 05:47:41;;;;;;;63.03;20.50;;;;;;;6.75;100.00;100995.53;5043828;28;20704;-74
2023/11/21 05:50:12;;;;;;;82.05;22.92;;;;;;;6.75;100.00;100998.94;5041919;28;20108;-76
2023/11/21 05:52:39;;;;;;;68.82;21.83;;;;;;;6.75;100.00;101009.25;5044706;28;20060;-76
2023/11/21 05:55:07;;;;;;;61.17;20.70;;;;;;;6.74;100.00;101009.38;5041648;28;20431;-77
2023/11/21 05:57:36;;;;;;;68.80;21.77;;;;;;;6.71;100.00;101007.06;5032014;28;20041;-76
2023/11/21 06:00:25;;;;;;;62.58;21.38;;;;;;;6.71;100.00;101009.63;5045152;28;20394;-74
2023/11/21 06:02:55;;;;;;;60.30;19.45;;;;;;;6.69;100.00;101019.25;5042681;28;20420;-76
2023/11/21 06:05:25;;;;;;;71.57;22.00;;;;;;;6.67;100.00;101019.38;5023026;28;20412;-75
2023/11/21 06:07:52;;;;;;;61.35;23.00;;;;;;;6.67;100.00;101026.25;5044494;28;20037;-76
2023/11/21 06:10:20;;;;;;;63.92;22.02;;;;;;;6.68;100.00;101035.63;5037988;28;20033;-76
2023/11/21 06:12:45;;;;;;;63.83;23.63;;;;;;;6.69;100.00;101032.94;5038628;28;20161;-76
2023/11/21 06:15:14;;;;;;;63.72;22.73;;;;;;;6.68;100.00;101044.19;5039674;28;20658;-76
2023/11/21 06:17:41;;;;;;;71.75;25.27;;;;;;;6.69;100.00;101048.41;5044992;28;20039;-76
2023/11/21 06:20:13;;;;;;;68.05;24.55;;;;;;;6.70;100.00;101050.03;5041298;28;20075;-76
2023/11/21 06:22:41;;;;;;;63.05;22.38;;;;;;;6.73;100.00;101043.81;5038707;28;20032;-76
2023/11/21 06:25:08;;;;;;;66.13;24.70;;;;;;;6.72;100.00;101050.72;5042846;28;20147;-77
2023/11/21 06:27:44;;;;;;;68.72;23.17;;;;;;;6.75;100.00;101050.47;5046713;28;20036;-76
2023/11/21 06:30:11;;;;;;;85.55;25.67;;;;;;;6.85;100.00;101052.31;5030186;28;20075;-76
2023/11/21 06:32:37;;;;;;;76.32;25.85;;;;;;;6.79;100.00;101054.44;5042192;28;20041;-76
2023/11/21 06:35:04;;;;;;;72.53;24.98;;;;;;;6.83;100.00;101063.56;5037347;28;20025;-74
2023/11/21 06:37:30;;;;;;;71.07;25.02;;;;;;;6.80;100.00;101061.25;5043721;28;20033;-75
2023/11/21 06:39:58;;;;;;;76.65;25.70;;;;;;;6.80;100.00;101063.00;5042441;28;20041;-76
2023/11/21 06:42:24;;;;;;;74.25;25.48;;;;;;;6.78;100.00;101062.28;5029047;28;20159;-78
2023/11/21 06:44:51;;;;;;;81.85;27.63;;;;;;;6.82;100.00;101074.81;5045267;28;20179;-77
2023/11/21 06:47:17;;;;;;;86.38;25.00;;;;;;;6.81;100.00;101073.16;5041317;28;20048;-77
2023/11/21 06:49:43;;;;;;;72.00;24.75;;;;;;;6.79;100.00;101084.56;5027215;28;20042;-77
2023/11/21 06:52:09;;;;;;;78.15;26.08;;;;;;;6.85;100.00;101085.81;5041958;28;20041;-76
2023/11/21 06:54:34;;;;;;;78.53;26.48;;;;;;;6.82;100.00;101085.13;5039562;28;20045;-76
2023/11/21 06:57:00;;;;;;;84.07;26.80;;;;;;;6.82;100.00;101092.88;5027278;28;20144;-77
2023/11/21 06:59:26;;;;;;;92.60;29.40;;;;;;;6.88;100.00;101094.13;5042296;28;20457;-76
2023/11/21 07:01:51;;;;;;;88.05;28.67;;;;;;;6.90;100.00;101094.00;5026083;28;20024;-77
2023/11/21 07:04:18;;;;;;;77.55;26.63;;;;;;;6.91;100.00;101106.78;5041515;28;20112;-75
2023/11/21 07:06:43;;;;;;;86.13;29.13;;;;;;;6.89;100.00;101103.47;5027134;28;20127;-75
2023/11/21 07:09:09;;;;;;;90.38;29.10;;;;;;;6.96;100.00;101109.78;5028680;28;20036;-77
2023/11/21 07:11:35;;;;;;;86.65;27.50;;;;;;;6.97;100.00;101110.63;5040052;28;20056;-75
2023/11/21 07:14:07;;;;;;;83.22;28.42;;;;;;;7.02;100.00;101105.88;5028546;28;20035;-77
2023/11/21 07:16:35;;;;;;;88.97;28.97;;;;;;;7.06;100.00;101115.00;5022347;28;20038;-77
2023/11/21 07:19:00;;;;;;;81.25;26.63;;;;;;;7.07;100.00;101115.84;5045306;28;20041;-76
2023/11/21 07:21:25;;;;;;;82.38;27.63;;;;;;;7.13;100.00;101115.34;5035034;28;20045;-76
2023/11/21 07:23:51;;;;;;;90.55;29.00;;;;;;;7.02;100.00;101116.19;5024058;28;20029;-75
2023/11/21 07:26:17;;;;;;;87.60;28.48;;;;;;;7.01;100.00;101115.38;5027606;28;20041;-76
2023/11/21 07:28:42;;;;;;;98.53;29.38;;;;;;;7.07;100.00;101118.41;5057460;28;20044;-77
2023/11/21 07:31:08;;;;;;;85.38;26.88;;;;;;;7.00;100.00;101124.06;5042803;28;20041;-77
2023/11/21 07:33:33;;;;;;;76.35;26.10;;;;;;;6.97;100.00;101128.66;5038093;28;20025;-77
2023/11/21 07:35:59;;;;;;;84.28;26.77;;;;;;;7.01;100.00;101130.84;5034366;28;20056;-77
2023/11/21 07:38:24;;;;;;;72.13;24.52;;;;;;;7.00;100.00;101141.28;5038571;28;20048;-74
2023/11/21 07:40:50;;;;;;;83.05;24.23;;;;;;;7.06;100.00;101143.38;5024384;28;20040;-76
2023/11/21 07:43:15;;;;;;;88.20;28.35;;;;;;;7.01;100.00;101150.69;5027324;28;20099;-74
2023/11/21 07:45:41;;;;;;;95.88;28.00;;;;;;;7.07;100.00;101157.09;5039101;28;20037;-77
2023/11/21 07:48:07;;;;;;;86.45;25.70;;;;;;;7.04;100.00;101158.16;5041292;28;20037;-77
2023/11/21 07:50:33;;;;;;;86.68;26.48;;;;;;;7.21;100.00;101157.63;5038992;28;20033;-77
2023/11/21 07:52:59;;;;;;;83.53;25.63;;;;;;;7.15;100.00;101159.88;5044872;28;21490;-77
2023/11/21 07:55:24;;;;;;;84.28;25.98;;;;;;;7.23;100.00;101170.38;5041804;28;20079;-76
2023/11/21 07:57:50;;;;;;;90.53;26.30;;;;;;;7.20;100.00;101170.63;5042051;28;20072;-74
2023/11/21 08:00:16;;;;;;;77.80;23.40;;;;;;;7.17;100.00;101176.84;5044065;28;20029;-76
2023/11/21 08:02:46;;;;;;;82.80;25.80;;;;;;;7.37;100.00;101162.31;5042727;28;20648;-77
2023/11/21 08:05:12;;;;;;;83.32;25.75;;;;;;;7.37;100.00;101177.81;5041544;28;20503;-76
2023/11/21 08:07:38;;;;;;;83.15;24.73;;;;;;;7.39;100.00;101181.06;5046455;28;20086;-77
2023/11/21 08:10:04;;;;;;;74.70;23.40;;;;;;;7.40;100.00;101180.16;5031331;28;20033;-77
2023/11/21 08:12:30;;;;;;;74.45;23.75;;;;;;;7.48;100.00;101184.69;5041611;28;20395;-76
2023/11/21 08:14:56;;;;;;;76.80;24.67;;;;;;;7.53;100.00;101185.09;5043102;28;20032;-76
2023/11/21 08:17:22;;;;;;;74.30;23.58;;;;;;;7.63;100.00;101189.50;5033602;28;20028;-77
2023/11/21 08:19:49;;;;;;;65.00;22.98;;;;;;;7.56;100.00;101191.78;5041729;28;20037;-77
2023/11/21 08:22:17;;;;;;;67.03;22.15;;;;;;;7.57;100.00;101196.81;5030995;28;20116;-77
2023/11/21 08:24:43;;;;;;;70.47;22.08;;;;;;;7.67;100.00;101193.47;5046976;28;20496;-76
2023/11/21 08:27:09;;;;;;;65.82;21.23;;;;;;;7.64;100.00;101206.63;5041839;28;20040;-77
2023/11/21 08:29:36;;;;;;;71.38;22.38;;;;;;;7.62;100.00;101200.78;5040524;28;20044;-78
2023/11/21 08:32:02;;;;;;;67.20;22.02;;;;;;;7.63;100.00;101203.25;5042342;28;20102;-77
2023/11/21 08:34:28;;;;;;;60.38;21.38;;;;;;;7.68;100.00;101208.00;5041688;28;20090;-76
2023/11/21 08:36:55;;;;;;;56.63;19.35;;;;;;;7.66;100.00;101204.75;5029556;28;20463;-78
2023/11/21 08:39:23;;;;;;;65.35;21.20;;;;;;;7.65;100.00;101209.09;5043392;28;20056;-77
2023/11/21 08:41:50;;;;;;;68.90;22.25;;;;;;;7.75;100.00;101220.28;5026793;28;20036;-76
2023/11/21 08:44:17;;;;;;;65.45;22.65;;;;;;;7.77;100.00;101222.75;5044428;28;20024;-76
2023/11/21 08:46:45;;;;;;;58.83;20.83;;;;;;;7.76;100.00;101226.25;5029915;28;20036;-76
2023/11/21 08:49:11;;;;;;;62.97;22.48;;;;;;;7.84;100.00;101223.88;5044150;28;20104;-77
2023/11/21 08:51:37;;;;;;;60.45;21.88;;;;;;;7.88;100.00;101232.19;5044100;28;20037;-77
2023/11/21 08:54:04;;;;;;;62.70;22.33;;;;;;;7.84;100.00;101229.03;5042903;28;20475;-77
2023/11/21 08:56:30;;;;;;;59.22;20.33;;;;;;;7.84;100.00;101231.63;5041345;28;20483;-76
2023/11/21 08:58:57;;;;;;;53.03;19.27;;;;;;;7.78;100.00;101235.53;5044984;28;20116;-77
2023/11/21 09:01:23;;;;;;;54.65;19.25;;;;;;;7.79;100.00;101244.09;5028638;28;20033;-77
2023/11/21 09:03:50;;;;;;;60.75;21.90;;;;;;;7.83;100.00;101242.88;5027462;28;20033;-76
2023/11/21 09:06:15;;;;;;;58.22;21.02;;;;;;;7.86;100.00;101252.16;5045200;28;20146;-76
2023/11/21 09:08:41;;;;;;;59.28;21.63;;;;;;;7.90;100.00;101256.91;5046462;28;20037;-78
2023/11/21 09:11:08;;;;;;;54.63;20.05;;;;;;;7.89;100.00;101260.47;5042776;28;20535;-78
2023/11/21 09:13:34;;;;;;;49.55;19.58;;;;;;;7.89;100.00;101260.47;5041036;28;20033;-77
2023/11/21 09:16:00;;;;;;;56.65;20.52;;;;;;;7.95;100.00;101266.88;5038055;28;20033;-77
2023/11/21 09:18:25;;;;;;;60.83;20.58;;;;;;;7.89;100.00;101263.06;5043785;28;20551;-77
2023/11/21 09:20:51;;;;;;;48.88;19.02;;;;;;;7.89;100.00;101265.63;5033117;28;20033;-77
2023/11/21 09:23:16;;;;;;;46.50;20.08;;;;;;;7.94;100.00;101265.22;5024759;28;20040;-78
2023/11/21 09:25:45;;;;;;;45.47;19.15;;;;;;;7.93;100.00;101267.00;5027491;28;20033;-76
2023/11/21 09:28:11;;;;;;;53.75;19.45;;;;;;;7.96;100.00;101273.66;5044487;28;20029;-77
2023/11/21 09:30:38;;;;;;;54.80;20.52;;;;;;;8.06;100.00;101282.31;5040049;28;20091;-76
2023/11/21 09:33:06;;;;;;;48.55;19.95;;;;;;;8.06;100.00;101282.31;5041184;28;20196;-77
2023/11/21 09:35:32;;;;;;;50.70;20.60;;;;;;;8.11;100.00;101287.06;5023924;28;20405;-78
2023/11/21 09:37:58;;;;;;;59.33;19.70;;;;;;;8.13;100.00;101288.56;5043722;28;20065;-77
2023/11/21 09:40:24;;;;;;;55.08;19.15;;;;;;;8.16;100.00;101293.50;5025322;28;20029;-76
2023/11/21 09:42:55;;;;;;;45.35;16.92;;;;;;;8.17;100.00;101287.41;5041719;28;20537;-77
2023/11/21 09:45:28;;;;;;;51.55;19.35;;;;;;;8.19;100.00;101282.06;5040509;28;20036;-77
2023/11/21 09:47:58;;;;;;;53.38;20.40;;;;;;;8.18;100.00;101289.03;5043182;28;20028;-78
2023/11/21 09:50:26;;;;;;;48.97;18.40;;;;;;;8.20;100.00;101294.06;5037032;28;20044;-80
2023/11/21 09:53:02;;;;;;;49.10;18.38;;;;;;;8.22;100.00;101288.78;5025805;28;20083;-78
2023/11/21 09:55:31;;;;;;;43.75;17.00;;;;;;;8.18;100.00;101294.19;5033368;28;20041;-75
2023/11/21 09:57:57;;;;;;;48.90;17.75;;;;;;;8.25;100.00;101291.91;5028518;28;20029;-77
2023/11/21 10:00:23;;;;;;;42.40;17.02;;;;;;;8.31;100.00;101290.59;5037884;28;20098;-77
2023/11/21 10:02:53;;;;;;;45.78;17.83;;;;;;;8.32;100.00;101293.00;5044636;28;20484;-78
2023/11/21 10:05:21;;;;;;;48.33;18.63;;;;;;;8.38;100.00;101297.69;5041443;28;20036;-76
2023/11/21 10:07:49;;;;;;;47.70;18.02;;;;;;;8.40;100.00;101302.75;5042244;28;20044;-77
2023/11/21 10:10:18;;;;;;;54.05;18.42;;;;;;;8.38;100.00;101300.28;5027150;28;20045;-77
2023/11/21 10:12:53;;;;;;;50.10;18.38;;;;;;;8.30;100.00;101304.44;5024855;28;20539;-77
2023/11/21 10:15:21;;;;;;;46.92;18.00;;;;;;;8.31;100.00;101306.09;5039363;28;20032;-76
2023/11/21 10:17:49;;;;;;;42.80;17.17;;;;;;;8.35;100.00;101299.72;5042966;28;20041;-77
2023/11/21 10:20:15;;;;;;;50.67;18.88;;;;;;;8.41;100.00;101303.53;5017268;28;20061;-77
2023/11/21 10:22:41;;;;;;;47.58;17.40;;;;;;;8.41;100.00;101306.13;5038716;28;20419;-78
2023/11/21 10:25:08;;;;;;;45.90;16.80;;;;;;;8.40;100.00;101307.91;5021967;28;20041;-77
2023/11/21 10:27:39;;;;;;;49.75;18.98;;;;;;;8.56;100.00;101310.03;5044309;28;20399;-77
2023/11/21 10:30:06;;;;;;;46.88;18.38;;;;;;;8.47;100.00;101310.81;5028806;28;20032;-76
2023/11/21 10:32:32;;;;;;;44.22;17.13;;;;;;;8.49;100.00;101308.91;5044751;28;20045;-78
2023/11/21 10:35:00;;;;;;;43.25;17.42;;;;;;;8.54;100.00;101317.09;5044379;28;20374;-77
2023/11/21 10:37:27;;;;;;;48.13;18.42;;;;;;;8.60;100.00;101321.75;5045612;28;20029;-77
2023/11/21 10:40:02;;;;;;;56.08;18.13;;;;;;;8.65;100.00;101322.19;5041698;28;20494;-77
2023/11/21 10:42:32;;;;;;;48.85;17.92;;;;;;;8.70;100.00;101329.53;5030127;28;20033;-77
2023/11/21 10:44:58;;;;;;;54.47;19.05;;;;;;;8.80;100.00;101316.63;5027258;28;20041;-78
2023/11/21 10:47:23;;;;;;;44.85;18.73;;;;;;;8.71;100.00;101320.84;5041679;28;20021;-75
2023/11/21 10:49:49;;;;;;;47.33;18.02;;;;;;;8.73;100.00;101322.31;5032097;28;20609;-76
2023/11/21 10:52:17;;;;;;;46.35;17.80;;;;;;;8.81;100.00;101320.88;5044649;28;20037;-77
2023/11/21 10:54:46;;;;;;;42.47;17.08;;;;;;;8.82;100.00;101325.09;5039358;28;20233;-77
2023/11/21 10:57:17;;;;;;;48.33;18.52;;;;;;;8.84;100.00;101324.00;5044181;28;20029;-77
2023/11/21 10:59:47;;;;;;;51.08;18.95;;;;;;;8.92;100.00;101325.94;5039739;28;20048;-77
2023/11/21 11:02:27;;;;;;;47.85;17.13;;;;;;;8.99;100.00;101328.81;5026802;28;20028;-77
2023/11/21 11:04:57;;;;;;;45.58;17.92;;;;;;;8.96;100.00;101324.72;5025962;28;20041;-78
2023/11/21 11:07:27;;;;;;;46.17;18.25;;;;;;;8.98;100.00;101333.16;5039683;28;20033;-77